createdAt,value
2023-03-03T00:00:44.170Z,69.60
2023-03-03T00:03:16.552Z,69.60
2023-03-03T00:05:44.202Z,69.30
2023-03-03T00:08:11.989Z,69.60
2023-03-03T00:10:40.149Z,70.00
2023-03-03T00:13:18.107Z,69.80
2023-03-03T00:15:46.151Z,69.80
2023-03-03T00:18:27.766Z,69.40
2023-03-03T00:20:57.191Z,68.60
2023-03-03T00:23:45.048Z,68.50
2023-03-03T00:26:37.555Z,69.60
2023-03-03T00:29:25.164Z,69.50
2023-03-03T00:31:52.769Z,68.90
2023-03-03T00:34:28.656Z,69.40
2023-03-03T00:36:56.808Z,69.30
2023-03-03T00:39:33.345Z,68.60
2023-03-03T00:42:05.296Z,69.40
2023-03-03T00:44:44.124Z,70.40
2023-03-03T00:47:31.607Z,70.80
2023-03-03T00:50:08.652Z,71.30
2023-03-03T00:52:38.453Z,71.60
2023-03-03T00:55:07.431Z,69.90
2023-03-03T00:57:35.734Z,69.20
2023-03-03T01:00:04.534Z,70.70
2023-03-03T01:02:41.653Z,69.80
2023-03-03T01:05:10.594Z,70.20
2023-03-03T01:07:38.061Z,68.90
2023-03-03T01:10:06.014Z,69.50
2023-03-03T01:12:33.563Z,68.60
2023-03-03T01:15:01.930Z,68.20
2023-03-03T01:17:32.854Z,68.80
2023-03-03T01:20:00.851Z,68.50
2023-03-03T01:22:29.360Z,68.80
2023-03-03T01:24:58.618Z,67.50
2023-03-03T01:27:29.667Z,68.10
2023-03-03T01:30:07.049Z,67.50
2023-03-03T01:32:35.070Z,67.70
2023-03-03T01:35:05.182Z,68.10
2023-03-03T01:37:34.542Z,67.50
2023-03-03T01:40:04.860Z,67.80
2023-03-03T01:42:33.581Z,67.70
2023-03-03T01:45:19.892Z,67.70
2023-03-03T01:47:49.193Z,67.10
2023-03-03T01:50:21.452Z,67.30
2023-03-03T01:52:51.003Z,67.20
2023-03-03T01:55:24.084Z,67.10
2023-03-03T01:57:57.500Z,66.90
2023-03-03T02:00:26.044Z,66.80
2023-03-03T02:02:56.175Z,66.30
2023-03-03T02:05:33.543Z,66.60
2023-03-03T02:08:01.293Z,66.50
2023-03-03T02:10:29.967Z,66.20
2023-03-03T02:12:58.412Z,66.30
2023-03-03T02:15:27.739Z,65.90
2023-03-03T02:18:00.527Z,65.80
2023-03-03T02:20:31.162Z,65.90
2023-03-03T02:23:09.065Z,66.00
2023-03-03T02:25:41.807Z,65.70
2023-03-03T02:28:11.334Z,65.90
2023-03-03T02:30:39.794Z,66.30
2023-03-03T02:33:07.580Z,65.80
2023-03-03T02:35:36.546Z,65.60
2023-03-03T02:38:16.312Z,65.90
2023-03-03T02:40:48.532Z,65.50
2023-03-03T02:43:16.865Z,65.30
2023-03-03T02:45:45.124Z,65.10
2023-03-03T02:48:13.703Z,65.20
2023-03-03T02:50:41.225Z,65.00
2023-03-03T02:53:08.769Z,65.10
2023-03-03T02:55:36.314Z,65.10
2023-03-03T02:58:08.125Z,65.10
2023-03-03T03:00:35.641Z,65.20
2023-03-03T03:03:03.252Z,65.00
2023-03-03T03:05:31.618Z,64.90
2023-03-03T03:07:59.202Z,64.90
2023-03-03T03:10:27.060Z,64.90
2023-03-03T03:12:54.585Z,64.90
2023-03-03T03:15:22.117Z,64.60
2023-03-03T03:17:50.136Z,64.60
2023-03-03T03:20:18.501Z,64.40
2023-03-03T03:22:46.070Z,64.00
2023-03-03T03:25:13.732Z,63.90
2023-03-03T03:27:41.711Z,63.60
2023-03-03T03:30:09.891Z,63.20
2023-03-03T03:32:38.410Z,62.60
2023-03-03T03:35:06.250Z,62.70
2023-03-03T03:37:42.851Z,63.10
2023-03-03T03:40:11.322Z,62.90
2023-03-03T03:42:40.709Z,62.90
2023-03-03T03:45:11.409Z,62.70
2023-03-03T03:47:39.037Z,60.40
2023-03-03T03:50:07.822Z,60.70
2023-03-03T03:52:36.536Z,61.30
2023-03-03T03:55:04.607Z,60.30
2023-03-03T03:57:32.449Z,60.30
2023-03-03T04:00:00.385Z,60.10
2023-03-03T04:02:35.821Z,59.80
2023-03-03T04:05:04.897Z,59.00
2023-03-03T04:07:33.443Z,59.20
2023-03-03T04:10:01.238Z,58.70
2023-03-03T04:12:36.231Z,57.90
2023-03-03T04:15:05.388Z,59.90
2023-03-03T04:17:33.194Z,59.20
2023-03-03T04:20:01.678Z,59.80
2023-03-03T04:22:30.410Z,59.90
2023-03-03T04:24:59.045Z,59.50
2023-03-03T04:27:27.377Z,56.90
2023-03-03T04:29:54.960Z,59.40
2023-03-03T04:32:22.881Z,58.60
2023-03-03T04:34:58.686Z,59.00
2023-03-03T04:37:34.491Z,58.40
2023-03-03T04:40:02.130Z,59.20
2023-03-03T04:42:30.500Z,58.00
2023-03-03T04:44:58.516Z,58.60
2023-03-03T04:47:26.511Z,58.70
2023-03-03T04:49:54.688Z,59.00
2023-03-03T04:52:22.317Z,57.40
2023-03-03T04:54:49.947Z,58.30
2023-03-03T04:57:18.020Z,56.20
2023-03-03T04:59:45.604Z,57.30
2023-03-03T05:02:13.849Z,57.00
2023-03-03T05:04:42.243Z,57.80
2023-03-03T05:07:11.012Z,56.40
2023-03-03T05:09:39.564Z,56.10
2023-03-03T05:12:07.801Z,57.40
2023-03-03T05:14:35.971Z,57.10
2023-03-03T05:17:05.202Z,57.50
2023-03-03T05:19:35.145Z,57.30
2023-03-03T05:22:02.949Z,57.10
2023-03-03T05:24:30.961Z,57.00
2023-03-03T05:26:59.321Z,55.30
2023-03-03T05:29:28.248Z,55.40
2023-03-03T05:31:55.930Z,57.40
2023-03-03T05:34:23.835Z,57.90
2023-03-03T05:37:03.014Z,56.80
2023-03-03T05:39:30.822Z,56.60
2023-03-03T05:42:01.027Z,56.70
2023-03-03T05:44:28.896Z,55.20
2023-03-03T05:47:01.090Z,53.90
2023-03-03T05:49:29.295Z,55.30
2023-03-03T05:51:57.393Z,53.10
2023-03-03T05:54:25.834Z,55.20
2023-03-03T05:56:54.436Z,54.70
2023-03-03T05:59:26.233Z,54.80
2023-03-03T06:01:59.079Z,54.80
2023-03-03T06:04:27.811Z,55.30
2023-03-03T06:06:57.807Z,56.20
2023-03-03T06:09:27.582Z,55.90
2023-03-03T06:11:58.220Z,54.70
2023-03-03T06:14:27.159Z,55.80
2023-03-03T06:16:58.228Z,55.60
2023-03-03T06:19:26.249Z,56.20
2023-03-03T06:21:54.011Z,55.90
2023-03-03T06:24:22.466Z,55.00
2023-03-03T06:26:50.727Z,54.80
2023-03-03T06:32:40.687Z,54.80
2023-03-03T06:35:08.429Z,55.60
2023-03-03T06:37:36.044Z,54.60
2023-03-03T06:40:08.912Z,54.70
2023-03-03T06:42:37.011Z,54.40
2023-03-03T06:45:05.233Z,52.50
2023-03-03T06:47:34.394Z,53.70
2023-03-03T06:50:04.863Z,55.10
2023-03-03T06:52:32.755Z,53.20
2023-03-03T06:55:01.820Z,53.20
2023-03-03T06:57:30.467Z,54.70
2023-03-03T06:59:59.701Z,53.90
2023-03-03T07:02:27.537Z,54.00
2023-03-03T07:04:57.052Z,52.50
2023-03-03T07:07:26.959Z,54.40
2023-03-03T07:09:56.743Z,50.70
2023-03-03T07:12:29.808Z,52.90
2023-03-03T07:15:15.377Z,53.20
2023-03-03T07:17:46.222Z,52.90
2023-03-03T07:20:22.447Z,52.50
2023-03-03T07:22:51.779Z,53.40
2023-03-03T07:25:33.636Z,54.20
2023-03-03T07:28:33.943Z,50.40
2023-03-03T07:31:20.336Z,51.50
2023-03-03T07:33:48.173Z,53.50
2023-03-03T07:36:28.346Z,52.60
2023-03-03T07:39:00.484Z,50.50
2023-03-03T07:41:28.661Z,51.40
2023-03-03T07:44:02.372Z,50.50
2023-03-03T07:46:48.496Z,52.10
2023-03-03T07:49:32.805Z,53.80
2023-03-03T07:52:01.762Z,49.70
2023-03-03T07:54:37.861Z,50.60
2023-03-03T07:57:24.835Z,53.50
2023-03-03T07:59:55.130Z,49.90
2023-03-03T08:02:41.633Z,51.10
2023-03-03T08:05:27.860Z,50.00
2023-03-03T08:08:00.855Z,50.10
2023-03-03T08:10:43.694Z,48.50
2023-03-03T08:13:20.547Z,51.00
2023-03-03T08:15:51.311Z,48.70
2023-03-03T08:18:44.713Z,51.30
2023-03-03T08:21:23.393Z,51.60
2023-03-03T08:23:52.743Z,50.20
2023-03-03T08:26:21.876Z,51.00
2023-03-03T08:28:49.698Z,51.90
2023-03-03T08:31:28.038Z,47.90
2023-03-03T08:34:05.896Z,50.90
2023-03-03T08:36:34.851Z,51.70
2023-03-03T08:39:03.829Z,52.20
2023-03-03T08:41:32.330Z,49.80
2023-03-03T08:43:59.937Z,48.80
2023-03-03T08:46:28.928Z,49.50
2023-03-03T08:48:56.554Z,49.10
2023-03-03T08:51:25.491Z,50.60
2023-03-03T08:53:53.155Z,51.90
2023-03-03T08:56:21.570Z,49.60
2023-03-03T08:59:01.617Z,48.90
2023-03-03T09:01:31.787Z,47.80
2023-03-03T09:03:59.456Z,48.00
2023-03-03T09:06:27.313Z,51.30
2023-03-03T09:08:55.434Z,52.00
2023-03-03T09:11:25.991Z,50.60
2023-03-03T09:13:59.942Z,48.90
2023-03-03T09:16:29.814Z,48.80
2023-03-03T09:19:03.558Z,51.00
2023-03-03T09:21:56.679Z,51.90
2023-03-03T09:24:29.264Z,49.90
2023-03-03T09:26:59.629Z,50.80
2023-03-03T09:29:29.600Z,49.70
2023-03-03T09:32:01.056Z,50.90
2023-03-03T09:34:45.422Z,50.80
2023-03-03T09:37:22.315Z,49.00
2023-03-03T09:39:54.781Z,48.90
2023-03-03T09:42:23.494Z,49.50
2023-03-03T09:45:11.119Z,47.40
2023-03-03T09:47:53.764Z,48.10
2023-03-03T09:50:25.751Z,47.30
2023-03-03T09:53:14.698Z,48.40
2023-03-03T09:55:50.880Z,49.10
2023-03-03T09:58:37.125Z,49.40
2023-03-03T10:01:22.937Z,50.40
2023-03-03T10:04:11.869Z,50.80
2023-03-03T10:06:46.123Z,48.30
2023-03-03T10:09:13.706Z,50.50
2023-03-03T10:12:07.008Z,49.10
2023-03-03T10:14:54.131Z,50.30
2023-03-03T10:17:24.816Z,50.20
2023-03-03T10:20:10.768Z,50.70
2023-03-03T10:22:54.352Z,50.10
2023-03-03T10:25:27.795Z,51.50
2023-03-03T10:27:59.134Z,51.10
2023-03-03T10:30:39.848Z,51.80
2023-03-03T10:33:12.926Z,51.70
2023-03-03T10:36:06.886Z,50.70
2023-03-03T10:38:35.593Z,51.10
2023-03-03T10:41:13.271Z,50.60
2023-03-03T10:44:13.074Z,51.00
2023-03-03T10:47:02.394Z,51.10
2023-03-03T10:49:38.552Z,51.80
2023-03-03T10:52:20.673Z,50.80
2023-03-03T10:54:58.660Z,52.00
2023-03-03T10:57:39.487Z,51.20
2023-03-03T11:00:16.086Z,51.50
2023-03-03T11:03:06.749Z,51.20
2023-03-03T11:05:41.086Z,51.70
2023-03-03T11:08:21.280Z,51.60
2023-03-03T11:10:55.215Z,51.90
2023-03-03T11:13:25.307Z,51.40
2023-03-03T11:15:53.167Z,51.80
2023-03-03T11:18:23.840Z,52.30
2023-03-03T11:20:58.584Z,52.20
2023-03-03T11:23:26.976Z,52.20
2023-03-03T11:26:09.285Z,52.30
2023-03-03T11:28:45.876Z,52.30
2023-03-03T11:31:32.124Z,52.40
2023-03-03T11:34:11.684Z,53.10
2023-03-03T11:37:01.266Z,52.70
2023-03-03T11:39:29.190Z,52.70
2023-03-03T11:41:57.713Z,52.90
2023-03-03T11:44:30.467Z,53.00
2023-03-03T11:47:06.596Z,52.80
2023-03-03T11:49:35.080Z,53.10
2023-03-03T11:52:22.943Z,53.20
2023-03-03T11:55:03.859Z,53.30
2023-03-03T11:57:47.047Z,53.40
2023-03-03T12:00:32.826Z,53.60
2023-03-03T12:03:29.482Z,53.50
2023-03-03T12:05:58.958Z,53.70
2023-03-03T12:08:45.690Z,53.80
2023-03-03T12:11:23.381Z,53.90
2023-03-03T12:13:54.588Z,54.00
2023-03-03T12:16:25.243Z,54.10
2023-03-03T12:18:59.104Z,54.30
2023-03-03T12:24:54.019Z,54.60
2023-03-03T12:27:41.657Z,54.60
2023-03-03T12:30:15.117Z,54.70
2023-03-03T12:32:43.220Z,54.80
2023-03-03T12:35:32.212Z,54.90
2023-03-03T12:38:12.061Z,55.00
2023-03-03T12:40:45.934Z,55.10
2023-03-03T12:43:37.018Z,55.10
2023-03-03T12:46:15.547Z,55.20
2023-03-03T12:48:44.729Z,55.30
2023-03-03T12:51:31.830Z,55.40
2023-03-03T12:54:19.767Z,55.50
2023-03-03T12:57:01.185Z,55.50
2023-03-03T12:59:47.611Z,55.80
2023-03-03T13:02:27.959Z,55.70
2023-03-03T13:05:17.378Z,55.70
2023-03-03T13:08:02.859Z,55.80
2023-03-03T13:10:39.396Z,55.90
2023-03-03T13:13:14.548Z,56.00
2023-03-03T13:15:55.805Z,56.10
2023-03-03T13:18:46.002Z,56.20
2023-03-03T13:21:19.783Z,56.30
2023-03-03T13:23:47.881Z,56.30
2023-03-03T13:26:52.531Z,56.40
2023-03-03T13:29:22.907Z,56.50
2023-03-03T13:31:57.064Z,56.60
2023-03-03T13:34:32.102Z,56.50
2023-03-03T13:37:06.313Z,56.50
2023-03-03T13:39:36.655Z,56.60
2023-03-03T13:42:08.129Z,56.60
2023-03-03T13:44:41.354Z,56.70
2023-03-03T13:47:10.475Z,56.70
2023-03-03T13:49:47.568Z,56.70
2023-03-03T13:52:24.468Z,56.70
2023-03-03T13:55:11.420Z,56.80
2023-03-03T13:57:52.904Z,56.90
2023-03-03T14:00:21.894Z,56.90
2023-03-03T14:02:53.724Z,56.90
2023-03-03T14:05:25.790Z,56.90
2023-03-03T14:08:09.485Z,57.00
2023-03-03T14:10:41.069Z,57.00
2023-03-03T14:13:25.103Z,57.00
2023-03-03T14:16:11.541Z,57.20
2023-03-03T14:18:40.153Z,57.10
2023-03-03T14:21:08.252Z,57.10
2023-03-03T14:23:58.144Z,57.10
2023-03-03T14:26:26.652Z,57.30
2023-03-03T14:29:05.097Z,57.40
2023-03-03T14:31:44.219Z,57.30
2023-03-03T14:34:24.436Z,57.40
2023-03-03T14:36:57.551Z,57.60
2023-03-03T14:39:37.676Z,57.80
2023-03-03T14:42:24.346Z,57.90
2023-03-03T14:44:55.956Z,57.80
2023-03-03T14:47:25.067Z,57.80
2023-03-03T14:49:53.558Z,58.00
2023-03-03T14:52:24.573Z,58.20
2023-03-03T14:54:54.005Z,58.80
2023-03-03T14:57:47.333Z,58.50
2023-03-03T15:00:16.125Z,58.50
2023-03-03T15:02:44.448Z,58.10
2023-03-03T15:05:26.181Z,58.60
2023-03-03T15:07:57.525Z,58.30
2023-03-03T15:10:30.562Z,58.30
2023-03-03T15:12:59.960Z,58.60
2023-03-03T15:15:30.754Z,58.90
2023-03-03T15:18:11.512Z,58.50
2023-03-03T15:20:39.587Z,58.70
2023-03-03T15:23:22.892Z,59.00
2023-03-03T15:26:03.441Z,59.10
2023-03-03T15:28:34.577Z,59.30
2023-03-03T15:31:09.472Z,59.80
2023-03-03T15:33:40.360Z,59.60
2023-03-03T15:36:24.684Z,59.30
2023-03-03T15:38:52.825Z,60.70
2023-03-03T15:41:32.026Z,60.20
2023-03-03T15:44:18.297Z,61.20
2023-03-03T15:46:54.599Z,61.50
2023-03-03T15:49:41.334Z,62.00
2023-03-03T15:52:23.492Z,61.40
2023-03-03T15:55:09.932Z,61.10
2023-03-03T15:57:47.212Z,60.90
2023-03-03T16:00:33.989Z,61.80
2023-03-03T16:03:21.678Z,61.70
2023-03-03T16:05:57.259Z,61.00
2023-03-03T16:08:32.703Z,61.40
2023-03-03T16:11:08.855Z,61.20
2023-03-03T16:13:41.309Z,61.20
2023-03-03T16:16:09.237Z,60.70
2023-03-03T16:18:58.525Z,60.90
2023-03-03T16:21:44.896Z,61.80
2023-03-03T16:24:23.044Z,61.80
2023-03-03T16:26:54.958Z,62.00
2023-03-03T16:29:54.767Z,62.00
2023-03-03T16:32:36.670Z,63.10
2023-03-03T16:35:23.792Z,62.60
2023-03-03T16:37:57.683Z,61.60
2023-03-03T16:40:39.147Z,63.10
2023-03-03T16:43:15.331Z,63.10
2023-03-03T16:45:43.382Z,63.00
2023-03-03T16:48:15.728Z,64.00
2023-03-03T16:51:03.343Z,63.10
2023-03-03T16:53:44.176Z,62.50
2023-03-03T16:56:11.718Z,63.10
2023-03-03T16:58:50.417Z,63.30
2023-03-03T17:01:27.705Z,62.60
2023-03-03T17:04:09.135Z,62.90
2023-03-03T17:06:36.847Z,63.30
2023-03-03T17:09:31.764Z,63.10
2023-03-03T17:12:03.334Z,62.50
2023-03-03T17:14:37.174Z,62.70
2023-03-03T17:17:16.971Z,63.00
2023-03-03T17:19:47.442Z,63.70
2023-03-03T17:22:20.576Z,65.20
2023-03-03T17:24:57.226Z,63.10
2023-03-03T17:27:34.945Z,64.50
2023-03-03T17:30:11.432Z,64.70
2023-03-03T17:32:51.249Z,64.40
2023-03-03T17:35:38.105Z,65.80
2023-03-03T17:38:14.791Z,64.30
2023-03-03T17:40:56.051Z,64.90
2023-03-03T17:43:26.737Z,64.80
2023-03-03T17:45:56.021Z,64.20
2023-03-03T17:48:27.448Z,65.20
2023-03-03T17:50:54.959Z,65.60
2023-03-03T17:53:25.562Z,66.60
2023-03-03T17:56:00.082Z,66.00
2023-03-03T17:58:45.917Z,67.60
2023-03-03T18:01:23.180Z,65.70
2023-03-03T18:03:57.122Z,66.60
2023-03-03T18:06:31.285Z,66.50
2023-03-03T18:09:14.147Z,65.70
2023-03-03T18:11:58.030Z,65.50
2023-03-03T18:14:29.951Z,66.00
2023-03-03T18:17:27.613Z,65.50
2023-03-03T18:19:56.841Z,66.70
2023-03-03T18:22:35.615Z,67.10
2023-03-03T18:25:10.398Z,67.20
2023-03-03T18:27:40.836Z,65.80
2023-03-03T18:30:08.875Z,64.70
2023-03-03T18:32:43.585Z,65.70
2023-03-03T18:35:29.510Z,66.00
2023-03-03T18:37:57.255Z,65.50
2023-03-03T18:40:24.989Z,65.40
2023-03-03T18:42:54.143Z,67.20
2023-03-03T18:45:23.240Z,66.00
2023-03-03T18:47:56.568Z,67.80
2023-03-03T18:50:43.584Z,66.20
2023-03-03T18:53:14.154Z,66.80
2023-03-03T18:55:43.365Z,68.10
2023-03-03T18:58:16.832Z,68.00
2023-03-03T19:00:52.227Z,68.30
2023-03-03T19:03:36.693Z,68.50
2023-03-03T19:06:05.770Z,68.30
2023-03-03T19:08:54.693Z,67.70
2023-03-03T19:11:48.544Z,67.80
2023-03-03T19:14:16.187Z,68.20
2023-03-03T19:16:44.387Z,67.70
2023-03-03T19:19:13.119Z,67.60
2023-03-03T19:21:43.038Z,68.30
2023-03-03T19:24:27.943Z,68.00
2023-03-03T19:27:13.769Z,68.30
2023-03-03T19:29:41.848Z,67.70
2023-03-03T19:32:29.435Z,67.80
2023-03-03T19:35:08.792Z,68.00
2023-03-03T19:37:55.298Z,67.00
2023-03-03T19:40:29.483Z,67.00
2023-03-03T19:43:11.957Z,68.20
2023-03-03T19:45:45.447Z,69.60
2023-03-03T19:48:21.952Z,67.60
2023-03-03T19:50:59.421Z,68.00
2023-03-03T19:53:36.951Z,68.40
2023-03-03T19:56:17.080Z,66.80
2023-03-03T19:58:50.681Z,66.70
2023-03-03T20:01:22.332Z,69.00
2023-03-03T20:04:06.014Z,67.50
2023-03-03T20:06:43.577Z,67.80
2023-03-03T20:09:17.014Z,69.00
2023-03-03T20:12:07.888Z,69.90
2023-03-03T20:14:41.662Z,68.60
2023-03-03T20:17:29.360Z,68.50
2023-03-03T20:20:00.931Z,70.00
2023-03-03T20:22:44.615Z,68.40
2023-03-03T20:25:15.424Z,68.10
2023-03-03T20:28:05.822Z,68.30
2023-03-03T20:30:39.490Z,67.40
2023-03-03T20:33:45.525Z,70.20
2023-03-03T20:36:27.784Z,69.90
2023-03-03T20:39:09.304Z,68.60
2023-03-03T20:41:43.450Z,68.00
2023-03-03T20:44:29.298Z,67.80
2023-03-03T20:46:56.833Z,68.30
2023-03-03T20:49:27.420Z,69.40
2023-03-03T20:51:54.954Z,69.50
2023-03-03T20:54:25.294Z,70.40
2023-03-03T20:57:11.625Z,70.00
2023-03-03T20:59:51.281Z,70.80
2023-03-03T21:02:24.957Z,70.60
2023-03-03T21:05:11.752Z,69.90
2023-03-03T21:07:50.696Z,69.50
2023-03-03T21:10:24.243Z,69.90
2023-03-03T21:12:53.120Z,69.50
2023-03-03T21:15:25.974Z,70.30
2023-03-03T21:17:55.163Z,70.40
2023-03-03T21:20:27.959Z,69.50
2023-03-03T21:22:57.058Z,69.00
2023-03-03T21:25:47.780Z,70.80
2023-03-03T21:28:21.364Z,71.30
2023-03-03T21:31:09.293Z,70.70
2023-03-03T21:33:39.889Z,70.00
2023-03-03T21:36:07.824Z,69.90
2023-03-03T21:38:36.393Z,70.90
2023-03-03T21:41:04.409Z,71.00
2023-03-03T21:43:38.126Z,69.60
2023-03-03T21:46:05.892Z,70.80
2023-03-03T21:48:33.473Z,69.90
2023-03-03T21:51:01.081Z,69.80
2023-03-03T21:53:29.776Z,71.10
2023-03-03T21:55:57.367Z,70.20
2023-03-03T21:58:24.883Z,69.60
2023-03-03T22:00:52.767Z,69.90
2023-03-03T22:03:21.105Z,70.10
2023-03-03T22:05:53.763Z,70.20
2023-03-03T22:08:23.649Z,70.20
2023-03-03T22:10:56.135Z,70.00
2023-03-03T22:13:25.153Z,69.60
2023-03-03T22:15:53.097Z,70.60
2023-03-03T22:18:20.825Z,71.20
2023-03-03T22:20:48.934Z,70.00
2023-03-03T22:23:17.135Z,70.40
2023-03-03T22:25:44.843Z,70.00
2023-03-03T22:28:12.384Z,71.30
2023-03-03T22:30:39.951Z,70.80
2023-03-03T22:33:07.528Z,70.80
2023-03-03T22:35:35.186Z,70.20
2023-03-03T22:38:03.636Z,68.80
2023-03-03T22:40:32.231Z,69.00
2023-03-03T22:43:01.054Z,69.00
2023-03-03T22:45:28.849Z,70.80
2023-03-03T22:47:56.433Z,69.90
2023-03-03T22:50:24.288Z,70.50
2023-03-03T22:52:51.925Z,70.60
2023-03-03T22:55:19.547Z,70.70
2023-03-03T22:57:47.133Z,71.00
2023-03-03T23:00:15.259Z,72.00
2023-03-03T23:02:43.683Z,71.70
2023-03-03T23:05:12.169Z,70.80
2023-03-03T23:07:41.144Z,71.10
2023-03-03T23:10:10.478Z,71.70
2023-03-03T23:12:38.676Z,72.40
2023-03-03T23:15:13.377Z,72.50
2023-03-03T23:17:44.573Z,71.40
2023-03-03T23:20:32.339Z,71.50
2023-03-03T23:22:59.907Z,70.80
2023-03-03T23:25:28.961Z,71.10
2023-03-03T23:27:56.582Z,70.50
2023-03-03T23:30:24.641Z,70.40
2023-03-03T23:32:52.384Z,71.60
2023-03-03T23:35:20.503Z,71.90
2023-03-03T23:37:48.174Z,70.20
2023-03-03T23:40:16.799Z,70.50
2023-03-03T23:42:44.660Z,70.50
2023-03-03T23:45:12.832Z,70.80
2023-03-03T23:47:40.714Z,70.70
2023-03-03T23:50:09.134Z,72.00
2023-03-03T23:52:37.030Z,72.80
2023-03-03T23:55:05.352Z,74.20
2023-03-03T23:57:33.914Z,73.90
